Terminal Aerodrome Forecast
Issued by NWS

Home | Current Version | Previous Version | Graphics & Text | Print | Product List | Glossary On
Versions: 1 2 3 4 5 6 7 8 9 10 11 12 13 14 15
000
FTUS43 KGRB 151100
TAFATW
TAF
KATW 151123Z 1512/1612 27003KT P6SM -SHRA SCT045 OVC060
      TEMPO 1514/1518 5SM -SHRA BR BKN045
     FM151800 28006KT P6SM VCSH BKN045 OVC070
     FM152100 30008KT P6SM SCT050 BKN090
     FM160000 30004KT P6SM SKC
     FM160900 27004KT P6SM SKC=

USA.gov is the U.S. government's official web portal to all federal, state and local government web resources and services.